sensor_id;sensor_type;location;lat;lon;timestamp;P1;durP1;ratioP1;P2;durP2;ratioP2
4389;SDS011;2209;48.982;8.406;2023-05-07T00:00:53;2.20;;;2.00;;
4389;SDS011;2209;48.982;8.406;2023-05-07T00:03:15;5.90;;;2.10;;
4389;SDS011;2209;48.982;8.406;2023-05-07T00:05:37;2.30;;;2.20;;
4389;SDS011;2209;48.982;8.406;2023-05-07T00:08:00;3.33;;;2.10;;
4389;SDS011;2209;48.982;8.406;2023-05-07T00:10:24;2.87;;;2.63;;
4389;SDS011;2209;48.982;8.406;2023-05-07T00:12:47;2.97;;;2.70;;
4389;SDS011;2209;48.982;8.406;2023-05-07T00:15:09;2.60;;;2.40;;
4389;SDS011;2209;48.982;8.406;2023-05-07T00:17:32;4.63;;;2.47;;
4389;SDS011;2209;48.982;8.406;2023-05-07T00:19:55;2.30;;;2.17;;
4389;SDS011;2209;48.982;8.406;2023-05-07T00:22:17;2.30;;;2.10;;
4389;SDS011;2209;48.982;8.406;2023-05-07T00:24:39;2.57;;;2.37;;
4389;SDS011;2209;48.982;8.406;2023-05-07T00:27:02;3.33;;;2.40;;
4389;SDS011;2209;48.982;8.406;2023-05-07T00:29:24;2.67;;;2.47;;
4389;SDS011;2209;48.982;8.406;2023-05-07T00:31:48;2.40;;;1.80;;
4389;SDS011;2209;48.982;8.406;2023-05-07T00:34:10;3.00;;;2.70;;
4389;SDS011;2209;48.982;8.406;2023-05-07T00:36:32;2.20;;;2.10;;
4389;SDS011;2209;48.982;8.406;2023-05-07T00:38:56;1.90;;;1.80;;
4389;SDS011;2209;48.982;8.406;2023-05-07T00:41:20;2.07;;;1.93;;
4389;SDS011;2209;48.982;8.406;2023-05-07T00:43:44;3.17;;;2.20;;
4389;SDS011;2209;48.982;8.406;2023-05-07T00:46:06;2.23;;;2.00;;
4389;SDS011;2209;48.982;8.406;2023-05-07T00:48:28;2.27;;;2.07;;
4389;SDS011;2209;48.982;8.406;2023-05-07T00:50:51;5.50;;;2.50;;
4389;SDS011;2209;48.982;8.406;2023-05-07T00:53:13;2.50;;;2.30;;
4389;SDS011;2209;48.982;8.406;2023-05-07T00:55:35;2.20;;;2.10;;
4389;SDS011;2209;48.982;8.406;2023-05-07T00:57:58;2.00;;;1.90;;
4389;SDS011;2209;48.982;8.406;2023-05-07T01:00:22;2.50;;;1.90;;
4389;SDS011;2209;48.982;8.406;2023-05-07T01:02:45;2.80;;;2.60;;
4389;SDS011;2209;48.982;8.406;2023-05-07T01:05:09;3.47;;;1.97;;
4389;SDS011;2209;48.982;8.406;2023-05-07T01:07:34;1.80;;;1.70;;
4389;SDS011;2209;48.982;8.406;2023-05-07T01:09:57;2.00;;;1.90;;
4389;SDS011;2209;48.982;8.406;2023-05-07T01:12:20;2.80;;;1.97;;
4389;SDS011;2209;48.982;8.406;2023-05-07T01:14:42;2.20;;;2.00;;
4389;SDS011;2209;48.982;8.406;2023-05-07T01:17:06;2.50;;;2.30;;
4389;SDS011;2209;48.982;8.406;2023-05-07T01:19:28;3.40;;;2.30;;
4389;SDS011;2209;48.982;8.406;2023-05-07T01:21:51;2.70;;;2.07;;
4389;SDS011;2209;48.982;8.406;2023-05-07T01:24:23;2.37;;;2.17;;
4389;SDS011;2209;48.982;8.406;2023-05-07T01:26:45;1.80;;;1.70;;
4389;SDS011;2209;48.982;8.406;2023-05-07T01:29:07;1.60;;;1.50;;
4389;SDS011;2209;48.982;8.406;2023-05-07T01:31:30;2.50;;;2.30;;
4389;SDS011;2209;48.982;8.406;2023-05-07T01:33:53;2.20;;;2.00;;
4389;SDS011;2209;48.982;8.406;2023-05-07T01:36:17;1.93;;;1.83;;
4389;SDS011;2209;48.982;8.406;2023-05-07T01:38:41;2.50;;;2.30;;
4389;SDS011;2209;48.982;8.406;2023-05-07T01:41:05;6.43;;;2.43;;
4389;SDS011;2209;48.982;8.406;2023-05-07T01:43:28;2.27;;;2.17;;
4389;SDS011;2209;48.982;8.406;2023-05-07T01:45:51;3.47;;;3.17;;
4389;SDS011;2209;48.982;8.406;2023-05-07T01:48:14;1.97;;;1.87;;
4389;SDS011;2209;48.982;8.406;2023-05-07T01:50:37;2.23;;;2.07;;
4389;SDS011;2209;48.982;8.406;2023-05-07T01:52:59;2.53;;;2.33;;
4389;SDS011;2209;48.982;8.406;2023-05-07T01:55:23;2.53;;;1.97;;
4389;SDS011;2209;48.982;8.406;2023-05-07T01:57:46;2.57;;;2.37;;
4389;SDS011;2209;48.982;8.406;2023-05-07T02:00:09;2.30;;;2.20;;
4389;SDS011;2209;48.982;8.406;2023-05-07T02:02:31;2.23;;;2.13;;
4389;SDS011;2209;48.982;8.406;2023-05-07T02:04:53;2.23;;;2.07;;
4389;SDS011;2209;48.982;8.406;2023-05-07T02:07:15;2.70;;;2.50;;
4389;SDS011;2209;48.982;8.406;2023-05-07T02:09:37;2.67;;;2.47;;
4389;SDS011;2209;48.982;8.406;2023-05-07T02:11:59;2.00;;;1.90;;
4389;SDS011;2209;48.982;8.406;2023-05-07T02:14:23;1.93;;;1.83;;
4389;SDS011;2209;48.982;8.406;2023-05-07T02:16:46;1.93;;;1.83;;
4389;SDS011;2209;48.982;8.406;2023-05-07T02:19:08;2.23;;;1.97;;
4389;SDS011;2209;48.982;8.406;2023-05-07T02:21:30;1.70;;;1.60;;
4389;SDS011;2209;48.982;8.406;2023-05-07T02:23:52;2.50;;;2.27;;
4389;SDS011;2209;48.982;8.406;2023-05-07T02:26:14;2.77;;;2.07;;
4389;SDS011;2209;48.982;8.406;2023-05-07T02:28:36;2.87;;;2.67;;
4389;SDS011;2209;48.982;8.406;2023-05-07T02:30:59;2.37;;;2.17;;
4389;SDS011;2209;48.982;8.406;2023-05-07T02:33:21;2.80;;;1.80;;
4389;SDS011;2209;48.982;8.406;2023-05-07T02:35:43;2.37;;;2.23;;
4389;SDS011;2209;48.982;8.406;2023-05-07T02:38:05;5.20;;;2.20;;
4389;SDS011;2209;48.982;8.406;2023-05-07T02:40:27;2.23;;;2.13;;
4389;SDS011;2209;48.982;8.406;2023-05-07T02:42:49;2.90;;;2.20;;
4389;SDS011;2209;48.982;8.406;2023-05-07T02:45:12;3.17;;;2.47;;
4389;SDS011;2209;48.982;8.406;2023-05-07T02:47:36;1.87;;;1.77;;
4389;SDS011;2209;48.982;8.406;2023-05-07T02:49:58;2.63;;;2.20;;
4389;SDS011;2209;48.982;8.406;2023-05-07T02:52:20;3.50;;;2.57;;
4389;SDS011;2209;48.982;8.406;2023-05-07T02:54:42;3.50;;;2.00;;
4389;SDS011;2209;48.982;8.406;2023-05-07T02:57:04;2.50;;;1.70;;
4389;SDS011;2209;48.982;8.406;2023-05-07T02:59:26;2.70;;;2.17;;
4389;SDS011;2209;48.982;8.406;2023-05-07T03:01:48;2.20;;;2.10;;
4389;SDS011;2209;48.982;8.406;2023-05-07T03:04:11;2.97;;;2.37;;
4389;SDS011;2209;48.982;8.406;2023-05-07T03:06:33;5.13;;;2.17;;
4389;SDS011;2209;48.982;8.406;2023-05-07T03:08:55;2.13;;;2.03;;
4389;SDS011;2209;48.982;8.406;2023-05-07T03:11:18;2.87;;;2.13;;
4389;SDS011;2209;48.982;8.406;2023-05-07T03:13:40;2.30;;;2.10;;
4389;SDS011;2209;48.982;8.406;2023-05-07T03:16:02;3.00;;;2.53;;
4389;SDS011;2209;48.982;8.406;2023-05-07T03:18:24;2.37;;;2.17;;
4389;SDS011;2209;48.982;8.406;2023-05-07T03:20:47;2.10;;;2.00;;
4389;SDS011;2209;48.982;8.406;2023-05-07T03:23:10;6.20;;;2.07;;
4389;SDS011;2209;48.982;8.406;2023-05-07T03:25:32;5.40;;;2.47;;
4389;SDS011;2209;48.982;8.406;2023-05-07T03:27:54;2.17;;;1.97;;
4389;SDS011;2209;48.982;8.406;2023-05-07T03:30:16;1.83;;;1.73;;
4389;SDS011;2209;48.982;8.406;2023-05-07T03:32:38;2.70;;;2.30;;
4389;SDS011;2209;48.982;8.406;2023-05-07T03:35:00;2.73;;;2.33;;
4389;SDS011;2209;48.982;8.406;2023-05-07T03:37:24;2.20;;;2.00;;
4389;SDS011;2209;48.982;8.406;2023-05-07T03:39:46;6.30;;;2.47;;
4389;SDS011;2209;48.982;8.406;2023-05-07T03:42:08;2.70;;;2.50;;
4389;SDS011;2209;48.982;8.406;2023-05-07T03:44:30;2.77;;;2.47;;
4389;SDS011;2209;48.982;8.406;2023-05-07T03:46:52;2.50;;;2.33;;
4389;SDS011;2209;48.982;8.406;2023-05-07T03:49:14;3.87;;;3.00;;
4389;SDS011;2209;48.982;8.406;2023-05-07T03:51:36;2.70;;;2.10;;
4389;SDS011;2209;48.982;8.406;2023-05-07T03:53:59;2.63;;;2.07;;
4389;SDS011;2209;48.982;8.406;2023-05-07T03:56:21;2.97;;;2.10;;
4389;SDS011;2209;48.982;8.406;2023-05-07T03:58:47;2.20;;;2.10;;
4389;SDS011;2209;48.982;8.406;2023-05-07T04:01:09;2.37;;;2.17;;
4389;SDS011;2209;48.982;8.406;2023-05-07T04:03:31;2.63;;;2.40;;
4389;SDS011;2209;48.982;8.406;2023-05-07T04:05:53;2.23;;;2.03;;
4389;SDS011;2209;48.982;8.406;2023-05-07T04:08:15;2.40;;;2.17;;
4389;SDS011;2209;48.982;8.406;2023-05-07T04:10:38;2.30;;;2.10;;
4389;SDS011;2209;48.982;8.406;2023-05-07T04:13:00;1.90;;;1.80;;
4389;SDS011;2209;48.982;8.406;2023-05-07T04:15:22;1.93;;;1.83;;
4389;SDS011;2209;48.982;8.406;2023-05-07T04:17:44;2.70;;;2.03;;
4389;SDS011;2209;48.982;8.406;2023-05-07T04:20:08;3.87;;;3.57;;
4389;SDS011;2209;48.982;8.406;2023-05-07T04:22:31;3.77;;;2.73;;
4389;SDS011;2209;48.982;8.406;2023-05-07T04:24:54;3.33;;;2.90;;
4389;SDS011;2209;48.982;8.406;2023-05-07T04:27:17;2.40;;;2.27;;
4389;SDS011;2209;48.982;8.406;2023-05-07T04:29:40;2.13;;;2.03;;
4389;SDS011;2209;48.982;8.406;2023-05-07T04:32:03;2.50;;;2.30;;
4389;SDS011;2209;48.982;8.406;2023-05-07T04:34:26;2.70;;;2.50;;
4389;SDS011;2209;48.982;8.406;2023-05-07T04:36:48;2.80;;;2.40;;
4389;SDS011;2209;48.982;8.406;2023-05-07T04:39:10;3.40;;;2.90;;
4389;SDS011;2209;48.982;8.406;2023-05-07T04:41:32;1.90;;;1.80;;
4389;SDS011;2209;48.982;8.406;2023-05-07T04:43:57;2.47;;;2.30;;
4389;SDS011;2209;48.982;8.406;2023-05-07T04:46:20;4.83;;;2.20;;
4389;SDS011;2209;48.982;8.406;2023-05-07T04:48:42;2.37;;;2.17;;
4389;SDS011;2209;48.982;8.406;2023-05-07T04:51:04;5.40;;;2.00;;
4389;SDS011;2209;48.982;8.406;2023-05-07T04:53:27;2.60;;;2.40;;
4389;SDS011;2209;48.982;8.406;2023-05-07T04:55:49;3.00;;;1.90;;
4389;SDS011;2209;48.982;8.406;2023-05-07T04:58:16;2.60;;;2.40;;
4389;SDS011;2209;48.982;8.406;2023-05-07T05:00:39;3.10;;;2.40;;
4389;SDS011;2209;48.982;8.406;2023-05-07T05:03:02;6.80;;;2.80;;
4389;SDS011;2209;48.982;8.406;2023-05-07T05:05:25;2.57;;;2.37;;
4389;SDS011;2209;48.982;8.406;2023-05-07T05:07:47;2.17;;;1.97;;
4389;SDS011;2209;48.982;8.406;2023-05-07T05:10:09;7.23;;;3.30;;
4389;SDS011;2209;48.982;8.406;2023-05-07T05:12:31;2.30;;;2.10;;
4389;SDS011;2209;48.982;8.406;2023-05-07T05:14:53;2.50;;;2.33;;
4389;SDS011;2209;48.982;8.406;2023-05-07T05:17:17;2.10;;;2.00;;
4389;SDS011;2209;48.982;8.406;2023-05-07T05:19:39;2.43;;;2.23;;
4389;SDS011;2209;48.982;8.406;2023-05-07T05:22:01;3.27;;;2.03;;
4389;SDS011;2209;48.982;8.406;2023-05-07T05:24:24;2.90;;;2.60;;
4389;SDS011;2209;48.982;8.406;2023-05-07T05:26:46;2.10;;;2.00;;
4389;SDS011;2209;48.982;8.406;2023-05-07T05:29:08;2.53;;;1.97;;
4389;SDS011;2209;48.982;8.406;2023-05-07T05:31:30;3.97;;;2.37;;
4389;SDS011;2209;48.982;8.406;2023-05-07T05:33:53;2.27;;;2.07;;
4389;SDS011;2209;48.982;8.406;2023-05-07T05:36:16;2.67;;;2.23;;
4389;SDS011;2209;48.982;8.406;2023-05-07T05:38:38;2.20;;;2.10;;
4389;SDS011;2209;48.982;8.406;2023-05-07T05:41:00;2.00;;;1.80;;
4389;SDS011;2209;48.982;8.406;2023-05-07T05:43:22;2.03;;;1.77;;
4389;SDS011;2209;48.982;8.406;2023-05-07T05:45:44;2.40;;;2.20;;
4389;SDS011;2209;48.982;8.406;2023-05-07T05:48:06;2.00;;;1.90;;
4389;SDS011;2209;48.982;8.406;2023-05-07T05:50:31;2.60;;;1.87;;
4389;SDS011;2209;48.982;8.406;2023-05-07T05:52:53;2.43;;;2.30;;
4389;SDS011;2209;48.982;8.406;2023-05-07T05:55:15;2.07;;;1.97;;
4389;SDS011;2209;48.982;8.406;2023-05-07T05:57:37;2.43;;;2.23;;
4389;SDS011;2209;48.982;8.406;2023-05-07T06:00:00;4.97;;;1.80;;
4389;SDS011;2209;48.982;8.406;2023-05-07T06:02:22;6.83;;;2.10;;
4389;SDS011;2209;48.982;8.406;2023-05-07T06:04:45;3.10;;;2.00;;
4389;SDS011;2209;48.982;8.406;2023-05-07T06:07:08;2.50;;;2.30;;
4389;SDS011;2209;48.982;8.406;2023-05-07T06:09:30;3.43;;;2.40;;
4389;SDS011;2209;48.982;8.406;2023-05-07T06:11:52;2.80;;;2.00;;
4389;SDS011;2209;48.982;8.406;2023-05-07T06:14:14;2.23;;;2.03;;
4389;SDS011;2209;48.982;8.406;2023-05-07T06:16:36;3.17;;;2.97;;
4389;SDS011;2209;48.982;8.406;2023-05-07T06:18:59;2.73;;;2.40;;
4389;SDS011;2209;48.982;8.406;2023-05-07T06:21:21;2.43;;;2.20;;
4389;SDS011;2209;48.982;8.406;2023-05-07T06:23:44;6.63;;;2.83;;
4389;SDS011;2209;48.982;8.406;2023-05-07T06:26:06;2.67;;;2.10;;
4389;SDS011;2209;48.982;8.406;2023-05-07T06:28:28;4.27;;;2.27;;
4389;SDS011;2209;48.982;8.406;2023-05-07T06:30:56;3.43;;;3.10;;
4389;SDS011;2209;48.982;8.406;2023-05-07T06:33:33;2.60;;;1.80;;
4389;SDS011;2209;48.982;8.406;2023-05-07T06:35:55;2.27;;;2.03;;
4389;SDS011;2209;48.982;8.406;2023-05-07T06:38:17;2.80;;;2.27;;
4389;SDS011;2209;48.982;8.406;2023-05-07T06:40:40;2.40;;;2.20;;
4389;SDS011;2209;48.982;8.406;2023-05-07T06:43:02;4.30;;;2.23;;
4389;SDS011;2209;48.982;8.406;2023-05-07T06:45:24;2.40;;;2.30;;
4389;SDS011;2209;48.982;8.406;2023-05-07T06:47:46;2.63;;;2.43;;
4389;SDS011;2209;48.982;8.406;2023-05-07T06:50:09;5.20;;;1.93;;
4389;SDS011;2209;48.982;8.406;2023-05-07T06:52:31;2.20;;;2.10;;
4389;SDS011;2209;48.982;8.406;2023-05-07T06:54:53;2.10;;;2.00;;
4389;SDS011;2209;48.982;8.406;2023-05-07T06:57:16;2.73;;;2.53;;
4389;SDS011;2209;48.982;8.406;2023-05-07T06:59:38;3.50;;;2.77;;
4389;SDS011;2209;48.982;8.406;2023-05-07T07:02:00;2.30;;;2.20;;
4389;SDS011;2209;48.982;8.406;2023-05-07T07:04:22;2.80;;;2.60;;
4389;SDS011;2209;48.982;8.406;2023-05-07T07:06:45;2.20;;;2.00;;
4389;SDS011;2209;48.982;8.406;2023-05-07T07:09:07;2.07;;;1.97;;
4389;SDS011;2209;48.982;8.406;2023-05-07T07:11:29;2.43;;;2.23;;
4389;SDS011;2209;48.982;8.406;2023-05-07T07:13:53;2.30;;;2.10;;
4389;SDS011;2209;48.982;8.406;2023-05-07T07:16:15;2.03;;;1.80;;
4389;SDS011;2209;48.982;8.406;2023-05-07T07:18:38;2.07;;;1.97;;
4389;SDS011;2209;48.982;8.406;2023-05-07T07:21:00;2.57;;;2.37;;
4389;SDS011;2209;48.982;8.406;2023-05-07T07:23:22;2.20;;;2.00;;
4389;SDS011;2209;48.982;8.406;2023-05-07T07:25:45;2.23;;;2.03;;
4389;SDS011;2209;48.982;8.406;2023-05-07T07:28:07;5.40;;;2.50;;
4389;SDS011;2209;48.982;8.406;2023-05-07T07:30:30;4.07;;;2.23;;
4389;SDS011;2209;48.982;8.406;2023-05-07T07:32:53;2.43;;;2.30;;
4389;SDS011;2209;48.982;8.406;2023-05-07T07:35:15;3.70;;;1.93;;
4389;SDS011;2209;48.982;8.406;2023-05-07T07:37:37;2.50;;;2.30;;
4389;SDS011;2209;48.982;8.406;2023-05-07T07:39:59;2.30;;;2.10;;
4389;SDS011;2209;48.982;8.406;2023-05-07T07:42:21;11.17;;;2.87;;
4389;SDS011;2209;48.982;8.406;2023-05-07T07:44:43;2.20;;;2.10;;
4389;SDS011;2209;48.982;8.406;2023-05-07T07:47:07;2.50;;;2.17;;
4389;SDS011;2209;48.982;8.406;2023-05-07T07:49:29;2.60;;;2.40;;
4389;SDS011;2209;48.982;8.406;2023-05-07T07:51:51;2.07;;;1.97;;
4389;SDS011;2209;48.982;8.406;2023-05-07T07:54:13;2.57;;;2.37;;
4389;SDS011;2209;48.982;8.406;2023-05-07T07:56:35;2.27;;;1.93;;
4389;SDS011;2209;48.982;8.406;2023-05-07T07:58:57;3.60;;;3.30;;
4389;SDS011;2209;48.982;8.406;2023-05-07T08:01:19;3.90;;;3.60;;
4389;SDS011;2209;48.982;8.406;2023-05-07T08:03:42;5.97;;;3.20;;
4389;SDS011;2209;48.982;8.406;2023-05-07T08:06:05;1.87;;;1.77;;
4389;SDS011;2209;48.982;8.406;2023-05-07T08:08:27;2.17;;;1.97;;
4389;SDS011;2209;48.982;8.406;2023-05-07T08:10:49;2.17;;;2.03;;
4389;SDS011;2209;48.982;8.406;2023-05-07T08:13:11;2.03;;;1.93;;
4389;SDS011;2209;48.982;8.406;2023-05-07T08:15:33;3.10;;;2.30;;
4389;SDS011;2209;48.982;8.406;2023-05-07T08:17:55;1.80;;;1.70;;
4389;SDS011;2209;48.982;8.406;2023-05-07T08:20:20;4.10;;;2.47;;
4389;SDS011;2209;48.982;8.406;2023-05-07T08:22:42;3.20;;;2.30;;
4389;SDS011;2209;48.982;8.406;2023-05-07T08:25:04;3.93;;;2.40;;
4389;SDS011;2209;48.982;8.406;2023-05-07T08:27:26;2.87;;;2.53;;
4389;SDS011;2209;48.982;8.406;2023-05-07T08:29:49;2.90;;;2.70;;
4389;SDS011;2209;48.982;8.406;2023-05-07T08:32:11;2.20;;;2.10;;
4389;SDS011;2209;48.982;8.406;2023-05-07T08:34:33;2.53;;;2.43;;
4389;SDS011;2209;48.982;8.406;2023-05-07T08:36:56;2.40;;;2.30;;
4389;SDS011;2209;48.982;8.406;2023-05-07T08:39:18;4.40;;;3.83;;
4389;SDS011;2209;48.982;8.406;2023-05-07T08:41:40;3.07;;;2.77;;
4389;SDS011;2209;48.982;8.406;2023-05-07T08:44:05;2.77;;;2.47;;
4389;SDS011;2209;48.982;8.406;2023-05-07T08:46:32;2.57;;;2.47;;
4389;SDS011;2209;48.982;8.406;2023-05-07T08:48:55;2.67;;;2.47;;
4389;SDS011;2209;48.982;8.406;2023-05-07T08:51:18;2.40;;;2.20;;
4389;SDS011;2209;48.982;8.406;2023-05-07T08:53:43;4.70;;;4.30;;
4389;SDS011;2209;48.982;8.406;2023-05-07T08:56:05;3.23;;;3.00;;
4389;SDS011;2209;48.982;8.406;2023-05-07T08:58:29;4.20;;;2.60;;
4389;SDS011;2209;48.982;8.406;2023-05-07T09:00:51;4.73;;;3.60;;
4389;SDS011;2209;48.982;8.406;2023-05-07T09:03:15;2.47;;;2.30;;
4389;SDS011;2209;48.982;8.406;2023-05-07T09:05:37;4.67;;;3.17;;
4389;SDS011;2209;48.982;8.406;2023-05-07T09:07:59;3.00;;;2.80;;
4389;SDS011;2209;48.982;8.406;2023-05-07T09:10:25;3.20;;;2.90;;
4389;SDS011;2209;48.982;8.406;2023-05-07T09:12:47;4.40;;;3.00;;
4389;SDS011;2209;48.982;8.406;2023-05-07T09:15:10;2.70;;;2.27;;
4389;SDS011;2209;48.982;8.406;2023-05-07T09:17:32;3.20;;;2.33;;
4389;SDS011;2209;48.982;8.406;2023-05-07T09:19:54;2.47;;;2.37;;
4389;SDS011;2209;48.982;8.406;2023-05-07T09:22:17;2.60;;;2.40;;
4389;SDS011;2209;48.982;8.406;2023-05-07T09:24:39;5.93;;;2.70;;
4389;SDS011;2209;48.982;8.406;2023-05-07T09:27:02;4.90;;;3.30;;
4389;SDS011;2209;48.982;8.406;2023-05-07T09:29:25;3.77;;;2.70;;
4389;SDS011;2209;48.982;8.406;2023-05-07T09:31:49;2.27;;;2.17;;
4389;SDS011;2209;48.982;8.406;2023-05-07T09:34:11;3.10;;;2.90;;
4389;SDS011;2209;48.982;8.406;2023-05-07T09:36:33;3.33;;;2.20;;
4389;SDS011;2209;48.982;8.406;2023-05-07T09:38:55;2.77;;;2.63;;
4389;SDS011;2209;48.982;8.406;2023-05-07T09:41:17;4.60;;;4.20;;
4389;SDS011;2209;48.982;8.406;2023-05-07T09:43:42;7.80;;;5.20;;
4389;SDS011;2209;48.982;8.406;2023-05-07T09:46:08;5.90;;;4.00;;
4389;SDS011;2209;48.982;8.406;2023-05-07T09:48:35;4.57;;;4.17;;
4389;SDS011;2209;48.982;8.406;2023-05-07T09:51:01;5.47;;;4.80;;
4389;SDS011;2209;48.982;8.406;2023-05-07T09:53:24;5.47;;;3.60;;
4389;SDS011;2209;48.982;8.406;2023-05-07T09:55:46;3.30;;;3.00;;
4389;SDS011;2209;48.982;8.406;2023-05-07T09:58:09;3.50;;;3.20;;
4389;SDS011;2209;48.982;8.406;2023-05-07T10:00:35;9.63;;;3.70;;
4389;SDS011;2209;48.982;8.406;2023-05-07T10:02:58;2.40;;;2.17;;
4389;SDS011;2209;48.982;8.406;2023-05-07T10:05:22;3.70;;;2.70;;
4389;SDS011;2209;48.982;8.406;2023-05-07T10:07:46;3.50;;;3.17;;
4389;SDS011;2209;48.982;8.406;2023-05-07T10:10:08;3.33;;;3.13;;
4389;SDS011;2209;48.982;8.406;2023-05-07T10:12:31;3.10;;;2.90;;
4389;SDS011;2209;48.982;8.406;2023-05-07T10:14:59;2.60;;;2.40;;
4389;SDS011;2209;48.982;8.406;2023-05-07T10:17:22;3.20;;;2.90;;
4389;SDS011;2209;48.982;8.406;2023-05-07T10:19:45;2.77;;;2.57;;
4389;SDS011;2209;48.982;8.406;2023-05-07T10:22:07;2.90;;;2.70;;
4389;SDS011;2209;48.982;8.406;2023-05-07T10:24:31;3.13;;;2.93;;
4389;SDS011;2209;48.982;8.406;2023-05-07T10:26:55;2.80;;;2.70;;
4389;SDS011;2209;48.982;8.406;2023-05-07T10:29:23;2.43;;;2.23;;
4389;SDS011;2209;48.982;8.406;2023-05-07T10:31:54;2.80;;;2.60;;
4389;SDS011;2209;48.982;8.406;2023-05-07T10:34:22;3.87;;;2.60;;
4389;SDS011;2209;48.982;8.406;2023-05-07T10:36:47;4.10;;;2.67;;
4389;SDS011;2209;48.982;8.406;2023-05-07T10:39:12;2.37;;;2.17;;
4389;SDS011;2209;48.982;8.406;2023-05-07T10:41:34;2.83;;;2.63;;
4389;SDS011;2209;48.982;8.406;2023-05-07T10:43:57;2.73;;;2.43;;
4389;SDS011;2209;48.982;8.406;2023-05-07T10:46:21;2.77;;;2.57;;
4389;SDS011;2209;48.982;8.406;2023-05-07T10:51:30;3.57;;;2.83;;
4389;SDS011;2209;48.982;8.406;2023-05-07T10:56:40;4.23;;;2.90;;
4389;SDS011;2209;48.982;8.406;2023-05-07T11:01:56;2.50;;;2.30;;
4389;SDS011;2209;48.982;8.406;2023-05-07T11:04:19;4.40;;;2.87;;
4389;SDS011;2209;48.982;8.406;2023-05-07T11:15:14;4.67;;;2.70;;
4389;SDS011;2209;48.982;8.406;2023-05-07T11:17:54;3.40;;;3.20;;
4389;SDS011;2209;48.982;8.406;2023-05-07T11:20:17;2.77;;;2.57;;
4389;SDS011;2209;48.982;8.406;2023-05-07T11:22:40;3.40;;;3.13;;
4389;SDS011;2209;48.982;8.406;2023-05-07T11:25:02;3.07;;;2.87;;
4389;SDS011;2209;48.982;8.406;2023-05-07T11:27:26;3.00;;;2.80;;
4389;SDS011;2209;48.982;8.406;2023-05-07T11:29:48;3.07;;;2.97;;
4389;SDS011;2209;48.982;8.406;2023-05-07T11:32:12;4.13;;;3.70;;
4389;SDS011;2209;48.982;8.406;2023-05-07T11:34:34;4.97;;;2.90;;
4389;SDS011;2209;48.982;8.406;2023-05-07T11:36:56;2.63;;;2.53;;
4389;SDS011;2209;48.982;8.406;2023-05-07T11:39:23;2.60;;;2.40;;
4389;SDS011;2209;48.982;8.406;2023-05-07T11:41:46;3.00;;;2.80;;
4389;SDS011;2209;48.982;8.406;2023-05-07T11:44:09;3.80;;;3.47;;
4389;SDS011;2209;48.982;8.406;2023-05-07T11:46:31;3.37;;;3.07;;
4389;SDS011;2209;48.982;8.406;2023-05-07T11:48:55;3.43;;;3.13;;
4389;SDS011;2209;48.982;8.406;2023-05-07T11:51:21;4.37;;;3.37;;
4389;SDS011;2209;48.982;8.406;2023-05-07T11:53:44;3.80;;;3.50;;
4389;SDS011;2209;48.982;8.406;2023-05-07T11:56:07;3.60;;;3.30;;
4389;SDS011;2209;48.982;8.406;2023-05-07T11:58:30;3.37;;;3.13;;
4389;SDS011;2209;48.982;8.406;2023-05-07T12:00:54;2.70;;;2.50;;
4389;SDS011;2209;48.982;8.406;2023-05-07T12:03:16;2.73;;;2.60;;
4389;SDS011;2209;48.982;8.406;2023-05-07T12:05:39;3.10;;;2.90;;
4389;SDS011;2209;48.982;8.406;2023-05-07T12:08:02;3.27;;;3.00;;
4389;SDS011;2209;48.982;8.406;2023-05-07T12:10:24;3.20;;;3.00;;
4389;SDS011;2209;48.982;8.406;2023-05-07T12:12:47;3.23;;;3.03;;
4389;SDS011;2209;48.982;8.406;2023-05-07T12:15:09;3.63;;;2.60;;
4389;SDS011;2209;48.982;8.406;2023-05-07T12:17:32;2.60;;;2.40;;
4389;SDS011;2209;48.982;8.406;2023-05-07T12:19:55;4.00;;;3.47;;
4389;SDS011;2209;48.982;8.406;2023-05-07T12:22:17;3.03;;;2.83;;
4389;SDS011;2209;48.982;8.406;2023-05-07T12:24:43;6.40;;;2.60;;
4389;SDS011;2209;48.982;8.406;2023-05-07T12:27:06;4.23;;;2.47;;
4389;SDS011;2209;48.982;8.406;2023-05-07T12:29:28;2.73;;;2.57;;
4389;SDS011;2209;48.982;8.406;2023-05-07T12:31:51;5.13;;;3.47;;
4389;SDS011;2209;48.982;8.406;2023-05-07T12:34:14;3.37;;;3.13;;
4389;SDS011;2209;48.982;8.406;2023-05-07T12:36:37;10.10;;;3.03;;
4389;SDS011;2209;48.982;8.406;2023-05-07T12:38:59;3.00;;;2.80;;
4389;SDS011;2209;48.982;8.406;2023-05-07T12:41:22;3.23;;;3.03;;
4389;SDS011;2209;48.982;8.406;2023-05-07T12:43:47;3.57;;;3.20;;
4389;SDS011;2209;48.982;8.406;2023-05-07T12:46:09;3.33;;;3.03;;
4389;SDS011;2209;48.982;8.406;2023-05-07T12:48:35;3.60;;;2.80;;
4389;SDS011;2209;48.982;8.406;2023-05-07T12:51:01;3.37;;;3.07;;
4389;SDS011;2209;48.982;8.406;2023-05-07T12:53:24;2.87;;;2.67;;
4389;SDS011;2209;48.982;8.406;2023-05-07T12:55:48;3.73;;;3.10;;
4389;SDS011;2209;48.982;8.406;2023-05-07T12:58:14;4.43;;;3.20;;
4389;SDS011;2209;48.982;8.406;2023-05-07T13:00:38;2.67;;;2.47;;
4389;SDS011;2209;48.982;8.406;2023-05-07T13:03:00;3.20;;;3.00;;
4389;SDS011;2209;48.982;8.406;2023-05-07T13:05:22;2.77;;;2.57;;
4389;SDS011;2209;48.982;8.406;2023-05-07T13:07:53;3.40;;;3.10;;
4389;SDS011;2209;48.982;8.406;2023-05-07T13:10:16;3.33;;;3.07;;
4389;SDS011;2209;48.982;8.406;2023-05-07T13:12:38;3.30;;;3.10;;
4389;SDS011;2209;48.982;8.406;2023-05-07T13:15:01;3.20;;;2.90;;
4389;SDS011;2209;48.982;8.406;2023-05-07T13:17:23;4.87;;;3.07;;
4389;SDS011;2209;48.982;8.406;2023-05-07T13:19:45;2.97;;;2.60;;
4389;SDS011;2209;48.982;8.406;2023-05-07T13:22:07;2.97;;;2.77;;
4389;SDS011;2209;48.982;8.406;2023-05-07T13:24:30;4.63;;;2.30;;
4389;SDS011;2209;48.982;8.406;2023-05-07T13:26:52;6.80;;;3.97;;
4389;SDS011;2209;48.982;8.406;2023-05-07T13:29:15;3.00;;;2.80;;
4389;SDS011;2209;48.982;8.406;2023-05-07T13:31:37;2.83;;;2.70;;
4389;SDS011;2209;48.982;8.406;2023-05-07T13:34:03;3.17;;;2.97;;
4389;SDS011;2209;48.982;8.406;2023-05-07T13:36:25;3.70;;;2.77;;
4389;SDS011;2209;48.982;8.406;2023-05-07T13:38:47;3.40;;;3.20;;
4389;SDS011;2209;48.982;8.406;2023-05-07T13:41:10;4.80;;;3.30;;
4389;SDS011;2209;48.982;8.406;2023-05-07T13:43:33;2.70;;;2.50;;
4389;SDS011;2209;48.982;8.406;2023-05-07T13:45:55;3.13;;;2.87;;
4389;SDS011;2209;48.982;8.406;2023-05-07T13:48:17;3.53;;;3.30;;
4389;SDS011;2209;48.982;8.406;2023-05-07T13:50:39;2.67;;;2.53;;
4389;SDS011;2209;48.982;8.406;2023-05-07T13:53:01;3.00;;;2.80;;
4389;SDS011;2209;48.982;8.406;2023-05-07T13:55:23;3.47;;;3.17;;
4389;SDS011;2209;48.982;8.406;2023-05-07T13:57:47;3.07;;;2.70;;
4389;SDS011;2209;48.982;8.406;2023-05-07T14:00:16;3.70;;;3.40;;
4389;SDS011;2209;48.982;8.406;2023-05-07T14:02:38;4.03;;;3.50;;
4389;SDS011;2209;48.982;8.406;2023-05-07T14:05:01;7.33;;;4.50;;
4389;SDS011;2209;48.982;8.406;2023-05-07T14:07:23;5.63;;;4.57;;
4389;SDS011;2209;48.982;8.406;2023-05-07T14:09:45;5.47;;;4.97;;
4389;SDS011;2209;48.982;8.406;2023-05-07T14:12:07;5.80;;;3.77;;
4389;SDS011;2209;48.982;8.406;2023-05-07T14:14:31;4.97;;;4.57;;
4389;SDS011;2209;48.982;8.406;2023-05-07T14:16:53;5.30;;;3.80;;
4389;SDS011;2209;48.982;8.406;2023-05-07T14:19:15;3.73;;;3.40;;
4389;SDS011;2209;48.982;8.406;2023-05-07T14:21:37;5.70;;;2.30;;
4389;SDS011;2209;48.982;8.406;2023-05-07T14:23:59;3.23;;;2.93;;
4389;SDS011;2209;48.982;8.406;2023-05-07T14:26:21;2.00;;;1.90;;
4389;SDS011;2209;48.982;8.406;2023-05-07T14:28:43;1.40;;;1.30;;
4389;SDS011;2209;48.982;8.406;2023-05-07T14:31:08;1.30;;;1.20;;
4389;SDS011;2209;48.982;8.406;2023-05-07T14:33:30;1.33;;;1.23;;
4389;SDS011;2209;48.982;8.406;2023-05-07T14:35:52;2.23;;;1.33;;
4389;SDS011;2209;48.982;8.406;2023-05-07T14:38:14;1.30;;;1.20;;
4389;SDS011;2209;48.982;8.406;2023-05-07T14:40:36;1.67;;;1.20;;
4389;SDS011;2209;48.982;8.406;2023-05-07T14:42:58;1.00;;;1.00;;
4389;SDS011;2209;48.982;8.406;2023-05-07T14:45:20;1.37;;;1.27;;
4389;SDS011;2209;48.982;8.406;2023-05-07T14:47:44;2.10;;;1.83;;
4389;SDS011;2209;48.982;8.406;2023-05-07T14:50:06;1.60;;;1.50;;
4389;SDS011;2209;48.982;8.406;2023-05-07T14:52:28;1.40;;;1.30;;
4389;SDS011;2209;48.982;8.406;2023-05-07T14:54:50;1.30;;;1.30;;
4389;SDS011;2209;48.982;8.406;2023-05-07T14:57:13;2.10;;;1.57;;
4389;SDS011;2209;48.982;8.406;2023-05-07T14:59:37;6.67;;;1.80;;
4389;SDS011;2209;48.982;8.406;2023-05-07T15:01:59;2.27;;;1.77;;
4389;SDS011;2209;48.982;8.406;2023-05-07T15:04:23;1.90;;;1.30;;